createdAt,value
2018-06-30T00:00:58.196Z,48.24
2018-06-30T00:03:34.730Z,48.21
2018-06-30T00:06:05.740Z,48.54
2018-06-30T00:08:40.596Z,49.56
2018-06-30T00:11:12.763Z,49.74
2018-06-30T00:13:43.432Z,49.51
2018-06-30T00:16:13.977Z,50.39
2018-06-30T00:18:44.520Z,50.62
2018-06-30T00:21:15.018Z,50.47
2018-06-30T00:23:45.414Z,49.80
2018-06-30T00:26:15.973Z,50.42
2018-06-30T00:28:48.167Z,50.38
2018-06-30T00:31:19.413Z,51.12
2018-06-30T00:33:54.813Z,50.93
2018-06-30T00:36:24.493Z,51.45
2018-06-30T00:38:55.539Z,50.63
2018-06-30T00:41:25.600Z,50.51
2018-06-30T00:43:55.983Z,51.19
2018-06-30T00:46:27.361Z,50.79
2018-06-30T00:48:58.042Z,51.03
2018-06-30T00:51:29.808Z,51.60
2018-06-30T00:54:00.094Z,51.71
2018-06-30T00:56:30.669Z,51.90
2018-06-30T00:59:01.156Z,52.01
2018-06-30T01:01:35.066Z,52.06
2018-06-30T01:04:07.309Z,51.52
2018-06-30T01:06:38.790Z,51.99
2018-06-30T01:09:11.002Z,52.14
2018-06-30T01:11:42.570Z,51.59
2018-06-30T01:14:12.395Z,51.14
2018-06-30T01:16:44.420Z,51.62
2018-06-30T01:19:16.774Z,51.56
2018-06-30T01:21:47.622Z,51.13
2018-06-30T01:24:18.484Z,51.49
2018-06-30T01:26:50.815Z,51.46
2018-06-30T01:29:22.350Z,51.38
2018-06-30T01:31:53.976Z,52.67
2018-06-30T01:34:23.964Z,51.17
2018-06-30T01:36:54.791Z,51.02
2018-06-30T01:39:25.461Z,51.18
2018-06-30T01:41:57.402Z,50.75
2018-06-30T01:44:29.436Z,50.62
2018-06-30T01:46:59.739Z,50.38
2018-06-30T01:49:30.923Z,51.08
2018-06-30T01:52:03.120Z,49.98
2018-06-30T01:54:33.836Z,50.49
2018-06-30T01:57:05.010Z,50.50
2018-06-30T01:59:37.164Z,49.54
2018-06-30T02:02:08.801Z,49.40
2018-06-30T02:04:40.558Z,49.90
2018-06-30T02:07:14.231Z,48.88
2018-06-30T02:09:44.862Z,48.36
2018-06-30T02:12:17.101Z,48.71
2018-06-30T02:14:47.693Z,49.16
2018-06-30T02:17:18.533Z,49.44
2018-06-30T02:19:49.336Z,47.80
2018-06-30T02:22:21.345Z,47.79
2018-06-30T02:24:54.420Z,47.42
2018-06-30T02:27:25.904Z,47.12
2018-06-30T02:29:59.749Z,47.27
2018-06-30T02:32:30.733Z,47.68
2018-06-30T02:35:02.272Z,48.84
2018-06-30T02:37:35.626Z,46.87
2018-06-30T02:40:06.018Z,46.65
2018-06-30T02:42:36.184Z,46.56
2018-06-30T02:45:08.356Z,46.74
2018-06-30T02:47:38.504Z,46.64
2018-06-30T02:50:10.370Z,47.32
2018-06-30T02:52:43.936Z,46.84
2018-06-30T02:55:17.198Z,47.35
2018-06-30T02:57:48.500Z,47.60
2018-06-30T03:00:19.884Z,47.98
2018-06-30T03:02:50.443Z,48.05
2018-06-30T03:05:22.966Z,48.47
2018-06-30T03:07:54.238Z,47.35
2018-06-30T03:10:25.672Z,47.96
2018-06-30T03:12:57.907Z,48.65
2018-06-30T03:15:28.105Z,48.97
2018-06-30T03:17:59.301Z,47.95
2018-06-30T03:20:29.232Z,48.91
2018-06-30T03:23:00.802Z,49.05
2018-06-30T03:25:33.333Z,48.90
2018-06-30T03:28:04.744Z,48.92
2018-06-30T03:30:38.905Z,48.85
2018-06-30T03:33:09.025Z,49.36
2018-06-30T03:35:41.279Z,49.16
2018-06-30T03:38:12.484Z,49.23
2018-06-30T03:40:44.309Z,49.48
2018-06-30T03:43:16.887Z,49.43
2018-06-30T03:45:49.974Z,49.76
2018-06-30T03:48:19.721Z,49.42
2018-06-30T03:50:52.119Z,49.50
2018-06-30T03:53:23.676Z,49.39
2018-06-30T03:55:58.426Z,49.77
2018-06-30T03:58:36.308Z,49.42
2018-06-30T04:01:10.107Z,49.78
2018-06-30T04:03:40.701Z,49.26
2018-06-30T04:06:11.996Z,49.40
2018-06-30T04:08:43.340Z,50.07
2018-06-30T04:11:14.784Z,48.92
2018-06-30T04:13:48.941Z,49.75
2018-06-30T04:16:21.004Z,48.66
2018-06-30T04:18:59.504Z,48.70
2018-06-30T04:21:31.578Z,48.87
2018-06-30T04:24:01.924Z,48.85
2018-06-30T04:26:37.887Z,49.17
2018-06-30T04:29:08.972Z,49.74
2018-06-30T04:31:40.648Z,49.16
2018-06-30T04:34:13.196Z,48.94
2018-06-30T04:36:46.662Z,48.74
2018-06-30T04:39:19.787Z,48.47
2018-06-30T04:41:51.151Z,48.30
2018-06-30T04:44:22.263Z,48.44
2018-06-30T04:46:55.502Z,48.96
2018-06-30T04:49:27.075Z,47.52
2018-06-30T04:51:58.897Z,47.91
2018-06-30T04:54:31.984Z,48.45
2018-06-30T04:57:05.701Z,48.47
2018-06-30T04:59:37.436Z,48.29
2018-06-30T05:02:09.745Z,47.96
2018-06-30T05:04:42.976Z,48.37
2018-06-30T05:07:18.860Z,47.30
2018-06-30T05:09:54.549Z,48.57
2018-06-30T05:12:26.129Z,47.75
2018-06-30T05:14:56.249Z,48.21
2018-06-30T05:17:27.323Z,47.81
2018-06-30T05:19:57.964Z,47.84
2018-06-30T05:22:29.675Z,47.69
2018-06-30T05:25:00.054Z,47.13
2018-06-30T05:27:31.189Z,47.24
2018-06-30T05:30:01.815Z,47.32
2018-06-30T05:32:33.375Z,46.77
2018-06-30T05:35:05.032Z,46.62
2018-06-30T05:37:36.196Z,47.76
2018-06-30T05:40:07.815Z,47.01
2018-06-30T05:42:40.687Z,47.13
2018-06-30T05:45:11.698Z,48.12
2018-06-30T05:47:43.709Z,48.27
2018-06-30T05:50:18.160Z,48.09
2018-06-30T05:52:49.045Z,47.64
2018-06-30T05:55:19.941Z,46.83
2018-06-30T05:57:51.253Z,47.54
2018-06-30T06:00:21.779Z,47.38
2018-06-30T06:02:53.139Z,47.16
2018-06-30T06:05:24.993Z,47.52
2018-06-30T06:07:57.417Z,46.51
2018-06-30T06:10:28.947Z,46.88
2018-06-30T06:13:01.051Z,46.56
2018-06-30T06:15:33.044Z,45.52
2018-06-30T06:18:05.932Z,46.02
2018-06-30T06:20:39.660Z,45.85
2018-06-30T06:23:17.401Z,45.56
2018-06-30T06:25:52.936Z,46.38
2018-06-30T06:28:27.245Z,45.88
2018-06-30T06:30:59.531Z,47.09
2018-06-30T06:33:31.692Z,46.47
2018-06-30T06:36:04.644Z,45.93
2018-06-30T06:38:36.876Z,44.48
2018-06-30T06:41:08.353Z,45.81
2018-06-30T06:43:40.056Z,45.45
2018-06-30T06:46:11.741Z,45.41
2018-06-30T06:48:45.422Z,45.26
2018-06-30T06:51:15.245Z,43.18
2018-06-30T06:53:44.925Z,44.27
2018-06-30T06:56:14.939Z,43.07
2018-06-30T06:58:45.636Z,43.87
2018-06-30T07:01:16.460Z,42.95
2018-06-30T07:03:46.697Z,44.26
2018-06-30T07:06:16.772Z,41.84
2018-06-30T07:08:48.883Z,42.23
2018-06-30T07:11:19.375Z,42.23
2018-06-30T07:13:49.207Z,40.77
2018-06-30T07:16:20.515Z,39.90
2018-06-30T07:18:50.536Z,40.89
2018-06-30T07:21:20.533Z,40.85
2018-06-30T07:23:50.523Z,41.40
2018-06-30T07:26:21.151Z,40.61
2018-06-30T07:28:53.439Z,40.62
2018-06-30T07:31:23.854Z,39.53
2018-06-30T07:33:54.525Z,39.56
2018-06-30T07:36:25.030Z,38.29
2018-06-30T07:38:57.640Z,38.30
2018-06-30T07:41:27.425Z,38.43
2018-06-30T07:43:57.695Z,38.48
2018-06-30T07:46:27.738Z,37.94
2018-06-30T07:48:57.398Z,37.62
2018-06-30T07:51:27.247Z,38.16
2018-06-30T07:53:57.793Z,39.12
2018-06-30T07:56:27.596Z,38.14
2018-06-30T07:58:57.866Z,38.23
2018-06-30T08:01:27.903Z,38.68
2018-06-30T08:03:57.633Z,39.06
2018-06-30T08:06:27.287Z,38.75
2018-06-30T08:08:57.207Z,36.95
2018-06-30T08:11:26.911Z,37.00
2018-06-30T08:13:57.963Z,36.60
2018-06-30T08:16:27.731Z,36.67
2018-06-30T08:18:58.854Z,36.12
2018-06-30T08:21:28.617Z,35.76
2018-06-30T08:23:58.397Z,36.00
2018-06-30T08:26:29.800Z,35.71
2018-06-30T08:28:59.783Z,36.10
2018-06-30T08:31:30.107Z,35.98
2018-06-30T08:33:59.950Z,34.62
2018-06-30T08:36:29.446Z,36.30
2018-06-30T08:39:00.386Z,35.04
2018-06-30T08:41:30.549Z,35.49
2018-06-30T08:44:01.294Z,35.62
2018-06-30T08:46:32.357Z,35.52
2018-06-30T08:49:04.420Z,34.36
2018-06-30T08:51:40.303Z,35.78
2018-06-30T08:54:10.082Z,35.86
2018-06-30T08:56:45.043Z,34.45
2018-06-30T08:59:17.407Z,35.59
2018-06-30T09:01:48.735Z,36.39
2018-06-30T09:04:19.472Z,36.02
2018-06-30T09:06:57.234Z,36.13
2018-06-30T09:09:27.629Z,33.91
2018-06-30T09:12:00.597Z,34.67
2018-06-30T09:14:31.833Z,34.30
2018-06-30T09:17:02.660Z,35.10
2018-06-30T09:19:35.665Z,34.23
2018-06-30T09:22:06.504Z,35.25
2018-06-30T09:24:37.150Z,34.10
2018-06-30T09:27:08.091Z,34.24
2018-06-30T09:29:39.770Z,33.69
2018-06-30T09:32:09.814Z,34.14
2018-06-30T09:34:39.716Z,34.28
2018-06-30T09:37:09.540Z,34.03
2018-06-30T09:39:40.395Z,35.04
2018-06-30T09:42:10.772Z,33.31
2018-06-30T09:44:40.850Z,33.66
2018-06-30T09:47:11.043Z,34.85
2018-06-30T09:49:41.278Z,34.05
2018-06-30T09:52:12.008Z,35.33
2018-06-30T09:54:41.946Z,32.53
2018-06-30T09:57:13.033Z,33.09
2018-06-30T09:59:43.633Z,33.49
2018-06-30T10:02:15.080Z,33.52
2018-06-30T10:04:44.763Z,34.32
2018-06-30T10:07:15.286Z,32.12
2018-06-30T10:09:45.098Z,33.34
2018-06-30T10:12:14.808Z,33.42
2018-06-30T10:14:44.640Z,31.92
2018-06-30T10:17:14.684Z,34.17
2018-06-30T10:19:44.488Z,33.28
2018-06-30T10:22:14.191Z,32.86
2018-06-30T10:24:44.577Z,32.70
2018-06-30T10:27:14.529Z,32.02
2018-06-30T10:29:44.816Z,32.69
2018-06-30T10:32:14.992Z,32.46
2018-06-30T10:34:44.677Z,32.22
2018-06-30T10:37:14.530Z,31.77
2018-06-30T10:39:44.263Z,30.80
2018-06-30T10:42:14.617Z,31.79
2018-06-30T10:44:44.205Z,31.28
2018-06-30T10:47:14.972Z,31.83
2018-06-30T10:49:44.719Z,31.51
2018-06-30T10:52:15.135Z,31.65
2018-06-30T10:54:45.392Z,30.66
2018-06-30T10:57:16.374Z,33.02
2018-06-30T10:59:47.144Z,33.03
2018-06-30T11:02:17.217Z,31.59
2018-06-30T11:04:47.739Z,30.70
2018-06-30T11:07:18.444Z,31.54
2018-06-30T11:09:49.643Z,31.58
2018-06-30T11:12:19.358Z,31.42
2018-06-30T11:14:50.402Z,31.53
2018-06-30T11:17:21.630Z,31.33
2018-06-30T11:19:51.542Z,30.70
2018-06-30T11:22:22.070Z,29.71
2018-06-30T11:24:52.948Z,31.17
2018-06-30T11:27:24.757Z,30.40
2018-06-30T11:29:54.640Z,29.41
2018-06-30T11:32:24.437Z,30.33
2018-06-30T11:34:54.246Z,28.74
2018-06-30T11:37:27.683Z,29.16
2018-06-30T11:40:00.635Z,29.43
2018-06-30T11:42:30.825Z,28.98
2018-06-30T11:45:01.503Z,28.67
2018-06-30T11:47:33.662Z,27.28
2018-06-30T11:50:03.600Z,28.58
2018-06-30T11:52:34.095Z,28.05
2018-06-30T11:55:04.829Z,28.87
2018-06-30T11:57:36.407Z,29.12
2018-06-30T12:00:07.733Z,28.46
2018-06-30T12:02:38.710Z,28.25
2018-06-30T12:05:10.379Z,28.00
2018-06-30T12:07:44.696Z,28.08
2018-06-30T12:10:15.579Z,26.85
2018-06-30T12:12:46.596Z,26.51
2018-06-30T12:15:18.883Z,28.15
2018-06-30T12:17:49.381Z,27.78
2018-06-30T12:20:19.225Z,27.35
2018-06-30T12:22:51.648Z,27.94
2018-06-30T12:25:21.746Z,28.34
2018-06-30T12:27:53.167Z,26.86
2018-06-30T12:30:23.509Z,26.80
2018-06-30T12:32:54.888Z,27.25
2018-06-30T12:35:26.324Z,25.92
2018-06-30T12:37:57.768Z,26.27
2018-06-30T12:40:28.779Z,25.40
2018-06-30T12:42:59.495Z,25.86
2018-06-30T12:45:31.956Z,26.32
2018-06-30T12:48:03.983Z,26.42
2018-06-30T12:50:35.888Z,25.43
2018-06-30T12:53:08.289Z,26.09
2018-06-30T12:55:39.261Z,27.16
2018-06-30T12:58:10.081Z,25.76
2018-06-30T13:00:40.350Z,25.82
2018-06-30T13:03:10.203Z,25.90
2018-06-30T13:05:40.127Z,25.66
2018-06-30T13:08:10.368Z,26.76
2018-06-30T13:10:40.009Z,25.65
2018-06-30T13:13:09.755Z,25.30
2018-06-30T13:15:40.330Z,25.09
2018-06-30T13:18:10.512Z,24.12
2018-06-30T13:20:40.325Z,24.40
2018-06-30T13:23:10.056Z,24.82
2018-06-30T13:25:39.832Z,24.74
2018-06-30T13:28:09.474Z,24.71
2018-06-30T13:30:39.224Z,25.17
2018-06-30T13:33:09.171Z,25.69
2018-06-30T13:35:38.821Z,23.35
2018-06-30T13:38:08.630Z,24.92
2018-06-30T13:40:38.302Z,23.90
2018-06-30T13:43:08.392Z,24.76
2018-06-30T13:45:38.588Z,24.40
2018-06-30T13:48:08.765Z,23.49
2018-06-30T13:50:38.585Z,24.49
2018-06-30T13:53:08.503Z,23.85
2018-06-30T13:55:38.388Z,24.83
2018-06-30T13:58:08.212Z,23.64
2018-06-30T14:00:38.044Z,23.59
2018-06-30T14:03:08.035Z,23.85
2018-06-30T14:05:38.568Z,24.82
2018-06-30T14:08:09.873Z,22.56
2018-06-30T14:10:39.753Z,23.62
2018-06-30T14:13:09.485Z,24.05
2018-06-30T14:15:39.434Z,23.64
2018-06-30T14:18:09.517Z,23.52
2018-06-30T14:20:39.293Z,23.45
2018-06-30T14:23:09.211Z,23.12
2018-06-30T14:25:40.566Z,23.05
2018-06-30T14:28:10.519Z,23.64
2018-06-30T14:30:43.710Z,24.21
2018-06-30T14:33:15.057Z,22.21
2018-06-30T14:35:45.473Z,23.57
2018-06-30T14:38:15.198Z,23.36
2018-06-30T14:40:45.078Z,23.04
2018-06-30T14:43:14.909Z,22.59
2018-06-30T14:45:44.620Z,24.12
2018-06-30T14:48:15.115Z,23.04
2018-06-30T14:50:45.065Z,24.53
2018-06-30T14:53:15.750Z,23.28
2018-06-30T14:55:46.595Z,23.05
2018-06-30T14:58:16.442Z,21.97
2018-06-30T15:00:46.249Z,23.22
2018-06-30T15:03:17.256Z,21.89
2018-06-30T15:05:47.034Z,22.15
2018-06-30T15:08:17.429Z,21.87
2018-06-30T15:10:47.484Z,22.37
2018-06-30T15:13:17.394Z,21.24
2018-06-30T15:15:47.124Z,22.39
2018-06-30T15:18:16.960Z,21.90
2018-06-30T15:20:46.353Z,21.57
2018-06-30T15:23:17.454Z,21.44
2018-06-30T15:25:47.263Z,20.59
2018-06-30T15:28:17.442Z,21.37
2018-06-30T15:30:47.787Z,19.94
2018-06-30T15:33:17.736Z,20.74
2018-06-30T15:35:47.619Z,19.62
2018-06-30T15:38:17.384Z,19.58
2018-06-30T15:40:47.115Z,19.77
2018-06-30T15:43:17.053Z,20.83
2018-06-30T15:45:47.144Z,21.23
2018-06-30T15:48:17.050Z,20.24
2018-06-30T15:50:46.660Z,19.64
2018-06-30T15:53:16.633Z,21.52
2018-06-30T15:55:46.514Z,19.87
2018-06-30T15:58:16.780Z,20.33
2018-06-30T16:00:46.710Z,21.00
2018-06-30T16:03:16.670Z,21.01
2018-06-30T16:05:46.385Z,20.89
2018-06-30T16:08:16.235Z,19.93
2018-06-30T16:10:46.389Z,20.25
2018-06-30T16:13:16.383Z,19.71
2018-06-30T16:15:46.389Z,19.78
2018-06-30T16:18:16.605Z,20.44
2018-06-30T16:20:46.410Z,20.14
2018-06-30T16:23:16.329Z,20.93
2018-06-30T16:25:47.065Z,19.60
2018-06-30T16:28:16.777Z,20.68
2018-06-30T16:30:46.575Z,20.26
2018-06-30T16:33:16.771Z,19.61
2018-06-30T16:35:46.476Z,20.50
2018-06-30T16:38:16.356Z,20.95
2018-06-30T16:40:46.052Z,20.14
2018-06-30T16:43:17.126Z,21.31
2018-06-30T16:45:46.918Z,22.41
2018-06-30T16:48:16.704Z,21.33
2018-06-30T16:50:46.473Z,22.90
2018-06-30T16:53:16.404Z,22.33
2018-06-30T16:55:46.230Z,21.51
2018-06-30T16:58:17.330Z,23.79
2018-06-30T17:00:47.120Z,22.52
2018-06-30T17:03:17.073Z,22.58
2018-06-30T17:05:46.771Z,23.71
2018-06-30T17:08:16.440Z,22.57
2018-06-30T17:10:46.077Z,23.60
2018-06-30T17:13:15.991Z,24.33
2018-06-30T17:15:45.707Z,23.56
2018-06-30T17:18:16.489Z,23.04
2018-06-30T17:20:46.892Z,24.06
2018-06-30T17:23:16.751Z,23.16
2018-06-30T17:25:47.028Z,23.45
2018-06-30T17:28:18.171Z,23.17
2018-06-30T17:30:47.920Z,22.94
2018-06-30T17:33:17.920Z,24.19
2018-06-30T17:35:47.683Z,23.69
2018-06-30T17:38:17.562Z,23.70
2018-06-30T17:40:48.784Z,24.86
2018-06-30T17:43:18.897Z,24.18
2018-06-30T17:45:49.639Z,24.05
2018-06-30T17:48:19.591Z,25.00
2018-06-30T17:50:50.494Z,25.15
2018-06-30T17:53:20.651Z,25.05
2018-06-30T17:55:50.669Z,25.51
2018-06-30T17:58:21.684Z,25.62
2018-06-30T18:00:52.280Z,25.40
2018-06-30T18:03:22.987Z,27.08
2018-06-30T18:05:52.752Z,27.06
2018-06-30T18:08:22.637Z,27.29
2018-06-30T18:12:21.763Z,26.47
2018-06-30T18:14:51.863Z,26.43
2018-06-30T18:17:21.699Z,26.52
2018-06-30T18:19:51.997Z,27.45
2018-06-30T18:22:21.366Z,27.25
2018-06-30T18:24:51.968Z,28.45
2018-06-30T18:27:21.756Z,28.30
2018-06-30T18:29:51.485Z,28.22
2018-06-30T18:32:21.425Z,27.42
2018-06-30T18:34:51.730Z,27.67
2018-06-30T18:37:21.507Z,28.45
2018-06-30T18:39:51.227Z,29.04
2018-06-30T18:42:21.697Z,27.37
2018-06-30T18:44:51.381Z,28.59
2018-06-30T18:47:21.168Z,29.18
2018-06-30T18:49:50.909Z,29.32
2018-06-30T18:52:20.603Z,28.80
2018-06-30T18:54:50.368Z,30.08
2018-06-30T18:57:20.384Z,29.37
2018-06-30T18:59:50.120Z,29.90
2018-06-30T19:02:19.772Z,29.06
2018-06-30T19:04:49.592Z,29.50
2018-06-30T19:07:20.358Z,30.09
2018-06-30T19:09:50.089Z,29.82
2018-06-30T19:12:19.867Z,29.71
2018-06-30T19:14:49.691Z,30.09
2018-06-30T19:17:19.548Z,30.06
2018-06-30T19:19:49.570Z,30.28
2018-06-30T19:22:20.789Z,30.47
2018-06-30T19:24:50.624Z,31.17
2018-06-30T19:27:20.574Z,30.95
2018-06-30T19:29:50.516Z,31.59
2018-06-30T19:32:20.654Z,30.61
2018-06-30T19:34:50.436Z,31.00
2018-06-30T19:37:21.066Z,31.53
2018-06-30T19:39:51.764Z,31.44
2018-06-30T19:42:21.790Z,32.25
2018-06-30T19:44:51.955Z,32.02
2018-06-30T19:47:21.653Z,32.44
2018-06-30T19:49:52.053Z,32.58
2018-06-30T19:52:22.067Z,31.65
2018-06-30T19:54:51.918Z,32.24
2018-06-30T19:57:21.680Z,33.65
2018-06-30T19:59:51.492Z,33.33
2018-06-30T20:02:21.360Z,32.86
2018-06-30T20:04:51.681Z,33.56
2018-06-30T20:07:22.315Z,33.55
2018-06-30T20:09:52.077Z,33.09
2018-06-30T20:12:21.986Z,33.37
2018-06-30T20:14:51.803Z,34.21
2018-06-30T20:17:21.578Z,34.65
2018-06-30T20:19:51.313Z,34.11
2018-06-30T20:22:21.707Z,34.45
2018-06-30T20:24:51.571Z,34.89
2018-06-30T20:27:21.674Z,34.93
2018-06-30T20:29:51.956Z,34.48
2018-06-30T20:32:21.817Z,34.15
2018-06-30T20:34:51.716Z,34.95
2018-06-30T20:37:21.447Z,34.92
2018-06-30T20:39:51.265Z,35.02
2018-06-30T20:42:21.099Z,34.74
2018-06-30T20:44:51.186Z,35.25
2018-06-30T20:47:20.925Z,35.79
2018-06-30T20:49:51.184Z,35.45
2018-06-30T20:52:21.009Z,35.89
2018-06-30T20:54:50.703Z,36.17
2018-06-30T20:57:21.249Z,35.58
2018-06-30T20:59:51.050Z,36.25
2018-06-30T21:02:20.903Z,35.93
2018-06-30T21:04:58.044Z,36.60
2018-06-30T21:07:27.745Z,36.03
2018-06-30T21:09:57.454Z,36.32
2018-06-30T21:12:27.308Z,36.70
2018-06-30T21:14:58.044Z,36.83
2018-06-30T21:17:27.884Z,36.05
2018-06-30T21:19:57.688Z,35.89
2018-06-30T21:22:27.394Z,36.46
2018-06-30T21:24:57.127Z,36.70
2018-06-30T21:27:27.257Z,37.42
2018-06-30T21:29:57.416Z,37.06
2018-06-30T21:32:27.187Z,37.08
2018-06-30T21:34:57.050Z,37.03
2018-06-30T21:37:26.765Z,37.22
2018-06-30T21:39:56.393Z,38.06
2018-06-30T21:42:26.223Z,38.43
2018-06-30T21:44:56.000Z,37.72
2018-06-30T21:47:25.797Z,37.64
2018-06-30T21:49:57.083Z,38.24
2018-06-30T21:52:26.897Z,38.41
2018-06-30T21:54:56.585Z,38.18
2018-06-30T21:57:26.264Z,38.34
2018-06-30T21:59:56.724Z,38.42
2018-06-30T22:02:26.487Z,38.40
2018-06-30T22:04:57.044Z,38.31
2018-06-30T22:07:27.038Z,38.82
2018-06-30T22:09:56.781Z,39.12
2018-06-30T22:12:26.612Z,38.96
2018-06-30T22:14:56.599Z,38.42
2018-06-30T22:17:26.442Z,39.17
2018-06-30T22:19:56.167Z,38.85
2018-06-30T22:22:25.935Z,39.53
2018-06-30T22:24:55.765Z,39.39
2018-06-30T22:27:25.665Z,39.55
2018-06-30T22:29:55.343Z,39.25
2018-06-30T22:32:25.252Z,39.65
2018-06-30T22:34:54.909Z,40.21
2018-06-30T22:37:25.100Z,39.82
2018-06-30T22:40:13.384Z,39.92
2018-06-30T22:42:43.670Z,39.81
2018-06-30T22:45:14.529Z,39.86
2018-06-30T22:47:45.057Z,40.64
2018-06-30T22:50:17.160Z,40.35
2018-06-30T22:52:46.906Z,39.75
2018-06-30T22:55:16.535Z,40.32
2018-06-30T22:57:46.359Z,40.35
2018-06-30T23:00:19.096Z,40.55
2018-06-30T23:02:48.855Z,40.40
2018-06-30T23:05:18.838Z,40.14
2018-06-30T23:07:48.448Z,40.93
2018-06-30T23:10:18.517Z,40.64
2018-06-30T23:12:48.786Z,40.96
2018-06-30T23:15:19.087Z,41.74
2018-06-30T23:17:49.066Z,41.38
2018-06-30T23:20:18.687Z,41.55
2018-06-30T23:22:58.820Z,40.72
2018-06-30T23:25:29.869Z,41.11
2018-06-30T23:28:00.176Z,41.90
2018-06-30T23:30:30.665Z,41.27
2018-06-30T23:33:00.288Z,41.29
2018-06-30T23:35:31.798Z,41.77
2018-06-30T23:38:02.288Z,42.03
2018-06-30T23:40:32.176Z,41.68
2018-06-30T23:43:01.868Z,42.32
2018-06-30T23:45:31.559Z,42.33
2018-06-30T23:48:01.277Z,42.42
2018-06-30T23:50:31.108Z,41.40
2018-06-30T23:53:00.774Z,42.33
2018-06-30T23:55:32.035Z,42.65
2018-06-30T23:58:01.714Z,42.31
